sensor_id;sensor_type;location;lat;lon;timestamp;P1;durP1;ratioP1;P2;durP2;ratioP2
50559;SDS011;36510;52.610;13.468;2022-11-13T00:01:23;37.10;;;27.90;;
50559;SDS011;36510;52.610;13.468;2022-11-13T00:06:14;37.88;;;29.50;;
50559;SDS011;36510;52.610;13.468;2022-11-13T00:11:08;35.95;;;27.98;;
50559;SDS011;36510;52.610;13.468;2022-11-13T00:16:09;36.50;;;29.58;;
50559;SDS011;36510;52.610;13.468;2022-11-13T00:21:10;33.08;;;28.90;;
50559;SDS011;36510;52.610;13.468;2022-11-13T00:26:07;35.35;;;28.25;;
50559;SDS011;36510;52.610;13.468;2022-11-13T00:31:01;37.10;;;29.13;;
50559;SDS011;36510;52.610;13.468;2022-11-13T00:35:52;34.17;;;28.30;;
50559;SDS011;36510;52.610;13.468;2022-11-13T00:40:43;33.60;;;28.00;;
50559;SDS011;36510;52.610;13.468;2022-11-13T00:45:33;31.48;;;28.02;;
50559;SDS011;36510;52.610;13.468;2022-11-13T00:50:24;34.42;;;28.45;;
50559;SDS011;36510;52.610;13.468;2022-11-13T00:55:14;32.63;;;27.48;;
50559;SDS011;36510;52.610;13.468;2022-11-13T01:00:05;31.20;;;27.05;;
50559;SDS011;36510;52.610;13.468;2022-11-13T01:04:56;35.08;;;27.15;;
50559;SDS011;36510;52.610;13.468;2022-11-13T01:09:50;34.00;;;27.38;;
50559;SDS011;36510;52.610;13.468;2022-11-13T01:14:40;30.80;;;26.00;;
50559;SDS011;36510;52.610;13.468;2022-11-13T01:19:32;30.38;;;26.83;;
50559;SDS011;36510;52.610;13.468;2022-11-13T01:24:23;32.30;;;26.40;;
50559;SDS011;36510;52.610;13.468;2022-11-13T01:29:13;32.25;;;26.20;;
50559;SDS011;36510;52.610;13.468;2022-11-13T01:34:03;33.15;;;26.65;;
50559;SDS011;36510;52.610;13.468;2022-11-13T01:38:54;30.38;;;25.52;;
50559;SDS011;36510;52.610;13.468;2022-11-13T01:43:45;32.10;;;25.27;;
50559;SDS011;36510;52.610;13.468;2022-11-13T01:48:44;32.75;;;24.80;;
50559;SDS011;36510;52.610;13.468;2022-11-13T01:53:38;32.60;;;25.85;;
50559;SDS011;36510;52.610;13.468;2022-11-13T01:58:31;34.55;;;24.67;;
50559;SDS011;36510;52.610;13.468;2022-11-13T02:03:21;29.13;;;23.60;;
50559;SDS011;36510;52.610;13.468;2022-11-13T02:08:12;30.55;;;23.95;;
50559;SDS011;36510;52.610;13.468;2022-11-13T02:13:03;29.13;;;22.42;;
50559;SDS011;36510;52.610;13.468;2022-11-13T02:17:54;25.83;;;20.92;;
50559;SDS011;36510;52.610;13.468;2022-11-13T02:22:49;25.13;;;20.23;;
50559;SDS011;36510;52.610;13.468;2022-11-13T02:27:42;24.70;;;19.85;;
50559;SDS011;36510;52.610;13.468;2022-11-13T02:32:35;24.67;;;19.67;;
50559;SDS011;36510;52.610;13.468;2022-11-13T02:37:31;21.58;;;18.05;;
50559;SDS011;36510;52.610;13.468;2022-11-13T02:42:22;25.52;;;17.50;;
50559;SDS011;36510;52.610;13.468;2022-11-13T02:47:12;22.42;;;17.30;;
50559;SDS011;36510;52.610;13.468;2022-11-13T02:52:03;19.85;;;16.35;;
50559;SDS011;36510;52.610;13.468;2022-11-13T02:56:53;19.95;;;14.95;;
50559;SDS011;36510;52.610;13.468;2022-11-13T03:01:44;22.83;;;14.45;;
50559;SDS011;36510;52.610;13.468;2022-11-13T03:06:35;17.20;;;14.20;;
50559;SDS011;36510;52.610;13.468;2022-11-13T03:11:26;17.48;;;14.77;;
50559;SDS011;36510;52.610;13.468;2022-11-13T03:16:16;16.60;;;13.75;;
50559;SDS011;36510;52.610;13.468;2022-11-13T03:21:07;14.23;;;12.65;;
50559;SDS011;36510;52.610;13.468;2022-11-13T03:26:08;15.93;;;13.38;;
50559;SDS011;36510;52.610;13.468;2022-11-13T03:31:00;18.05;;;12.82;;
50559;SDS011;36510;52.610;13.468;2022-11-13T03:35:51;16.02;;;12.98;;
50559;SDS011;36510;52.610;13.468;2022-11-13T03:40:42;14.30;;;12.48;;
50559;SDS011;36510;52.610;13.468;2022-11-13T03:45:32;15.27;;;12.50;;
50559;SDS011;36510;52.610;13.468;2022-11-13T03:50:23;14.60;;;12.30;;
50559;SDS011;36510;52.610;13.468;2022-11-13T03:55:14;15.23;;;12.57;;
50559;SDS011;36510;52.610;13.468;2022-11-13T04:00:05;13.65;;;12.15;;
50559;SDS011;36510;52.610;13.468;2022-11-13T04:04:55;13.93;;;12.13;;
50559;SDS011;36510;52.610;13.468;2022-11-13T04:09:46;16.42;;;12.50;;
50559;SDS011;36510;52.610;13.468;2022-11-13T04:14:36;16.80;;;13.07;;
50559;SDS011;36510;52.610;13.468;2022-11-13T04:19:27;13.70;;;12.25;;
50559;SDS011;36510;52.610;13.468;2022-11-13T04:24:17;15.35;;;13.40;;
50559;SDS011;36510;52.610;13.468;2022-11-13T04:29:08;16.98;;;13.43;;
50559;SDS011;36510;52.610;13.468;2022-11-13T04:33:58;13.98;;;12.57;;
50559;SDS011;36510;52.610;13.468;2022-11-13T04:38:49;14.32;;;11.98;;
50559;SDS011;36510;52.610;13.468;2022-11-13T04:43:40;13.68;;;11.65;;
50559;SDS011;36510;52.610;13.468;2022-11-13T04:48:30;14.30;;;12.38;;
50559;SDS011;36510;52.610;13.468;2022-11-13T04:53:21;16.35;;;12.75;;
50559;SDS011;36510;52.610;13.468;2022-11-13T04:58:11;16.17;;;14.45;;
50559;SDS011;36510;52.610;13.468;2022-11-13T05:03:02;16.23;;;14.00;;
50559;SDS011;36510;52.610;13.468;2022-11-13T05:07:52;19.83;;;14.88;;
50559;SDS011;36510;52.610;13.468;2022-11-13T05:12:43;17.58;;;14.02;;
50559;SDS011;36510;52.610;13.468;2022-11-13T05:17:33;15.45;;;13.57;;
50559;SDS011;36510;52.610;13.468;2022-11-13T05:22:23;15.25;;;12.95;;
50559;SDS011;36510;52.610;13.468;2022-11-13T05:27:14;17.58;;;13.48;;
50559;SDS011;36510;52.610;13.468;2022-11-13T05:32:04;17.77;;;14.57;;
50559;SDS011;36510;52.610;13.468;2022-11-13T05:36:55;16.55;;;14.13;;
50559;SDS011;36510;52.610;13.468;2022-11-13T05:41:45;17.42;;;15.73;;
50559;SDS011;36510;52.610;13.468;2022-11-13T05:46:36;16.45;;;14.73;;
50559;SDS011;36510;52.610;13.468;2022-11-13T05:51:27;16.30;;;14.07;;
50559;SDS011;36510;52.610;13.468;2022-11-13T05:56:21;17.35;;;14.95;;
50559;SDS011;36510;52.610;13.468;2022-11-13T06:01:20;16.23;;;14.52;;
50559;SDS011;36510;52.610;13.468;2022-11-13T06:06:13;16.13;;;13.45;;
50559;SDS011;36510;52.610;13.468;2022-11-13T06:11:07;14.45;;;12.57;;
50559;SDS011;36510;52.610;13.468;2022-11-13T06:15:59;14.38;;;12.60;;
50559;SDS011;36510;52.610;13.468;2022-11-13T06:20:51;15.55;;;13.15;;
50559;SDS011;36510;52.610;13.468;2022-11-13T06:25:41;17.50;;;13.60;;
50559;SDS011;36510;52.610;13.468;2022-11-13T06:30:32;15.70;;;13.93;;
50559;SDS011;36510;52.610;13.468;2022-11-13T06:35:22;17.65;;;15.18;;
50559;SDS011;36510;52.610;13.468;2022-11-13T06:40:13;18.60;;;15.75;;
50559;SDS011;36510;52.610;13.468;2022-11-13T06:45:04;18.45;;;15.05;;
50559;SDS011;36510;52.610;13.468;2022-11-13T06:49:54;18.08;;;15.63;;
50559;SDS011;36510;52.610;13.468;2022-11-13T06:54:45;18.20;;;16.25;;
50559;SDS011;36510;52.610;13.468;2022-11-13T06:59:35;20.52;;;16.77;;
50559;SDS011;36510;52.610;13.468;2022-11-13T07:04:26;20.02;;;17.00;;
50559;SDS011;36510;52.610;13.468;2022-11-13T07:09:16;20.45;;;17.33;;
50559;SDS011;36510;52.610;13.468;2022-11-13T07:14:08;18.25;;;16.27;;
50559;SDS011;36510;52.610;13.468;2022-11-13T07:19:00;23.42;;;16.75;;
50559;SDS011;36510;52.610;13.468;2022-11-13T07:23:51;21.55;;;18.13;;
50559;SDS011;36510;52.610;13.468;2022-11-13T07:28:41;19.90;;;16.52;;
50559;SDS011;36510;52.610;13.468;2022-11-13T07:33:32;19.95;;;17.80;;
50559;SDS011;36510;52.610;13.468;2022-11-13T07:38:23;23.92;;;18.90;;
50559;SDS011;36510;52.610;13.468;2022-11-13T07:43:13;21.33;;;18.00;;
50559;SDS011;36510;52.610;13.468;2022-11-13T07:48:04;20.17;;;15.93;;
50559;SDS011;36510;52.610;13.468;2022-11-13T07:52:56;22.35;;;16.30;;
50559;SDS011;36510;52.610;13.468;2022-11-13T07:57:48;20.25;;;16.45;;
50559;SDS011;36510;52.610;13.468;2022-11-13T08:02:39;21.00;;;16.42;;
50559;SDS011;36510;52.610;13.468;2022-11-13T08:07:29;21.58;;;16.80;;
50559;SDS011;36510;52.610;13.468;2022-11-13T08:12:20;23.42;;;17.33;;
50559;SDS011;36510;52.610;13.468;2022-11-13T08:17:10;19.65;;;14.80;;
50559;SDS011;36510;52.610;13.468;2022-11-13T08:22:00;17.13;;;14.25;;
50559;SDS011;36510;52.610;13.468;2022-11-13T08:26:51;18.17;;;13.90;;
50559;SDS011;36510;52.610;13.468;2022-11-13T08:31:41;19.30;;;14.68;;
50559;SDS011;36510;52.610;13.468;2022-11-13T08:36:32;17.98;;;13.70;;
50559;SDS011;36510;52.610;13.468;2022-11-13T08:41:22;16.27;;;11.98;;
50559;SDS011;36510;52.610;13.468;2022-11-13T08:46:13;14.18;;;11.13;;
50559;SDS011;36510;52.610;13.468;2022-11-13T08:51:03;16.60;;;13.43;;
50559;SDS011;36510;52.610;13.468;2022-11-13T08:55:54;21.55;;;14.45;;
50559;SDS011;36510;52.610;13.468;2022-11-13T09:00:44;20.90;;;15.73;;
50559;SDS011;36510;52.610;13.468;2022-11-13T09:05:35;22.75;;;17.27;;
50559;SDS011;36510;52.610;13.468;2022-11-13T09:10:26;26.65;;;19.38;;
50559;SDS011;36510;52.610;13.468;2022-11-13T09:15:17;24.05;;;19.45;;
50559;SDS011;36510;52.610;13.468;2022-11-13T09:20:08;30.42;;;21.85;;
50559;SDS011;36510;52.610;13.468;2022-11-13T09:24:58;30.27;;;21.40;;
50559;SDS011;36510;52.610;13.468;2022-11-13T09:29:49;27.70;;;20.50;;
50559;SDS011;36510;52.610;13.468;2022-11-13T09:34:39;26.77;;;21.02;;
50559;SDS011;36510;52.610;13.468;2022-11-13T09:39:30;25.55;;;20.55;;
50559;SDS011;36510;52.610;13.468;2022-11-13T09:44:29;26.58;;;19.98;;
50559;SDS011;36510;52.610;13.468;2022-11-13T09:49:28;25.02;;;20.30;;
50559;SDS011;36510;52.610;13.468;2022-11-13T09:54:21;24.27;;;20.42;;
50559;SDS011;36510;52.610;13.468;2022-11-13T09:59:23;27.92;;;20.95;;
50559;SDS011;36510;52.610;13.468;2022-11-13T10:04:23;25.15;;;20.52;;
50559;SDS011;36510;52.610;13.468;2022-11-13T10:09:26;25.52;;;20.00;;
50559;SDS011;36510;52.610;13.468;2022-11-13T10:14:29;23.90;;;19.30;;
50559;SDS011;36510;52.610;13.468;2022-11-13T10:19:28;25.88;;;19.05;;
50559;SDS011;36510;52.610;13.468;2022-11-13T10:24:39;22.42;;;18.83;;
50559;SDS011;36510;52.610;13.468;2022-11-13T10:29:32;20.08;;;17.50;;
50559;SDS011;36510;52.610;13.468;2022-11-13T10:34:24;23.33;;;18.52;;
50559;SDS011;36510;52.610;13.468;2022-11-13T10:39:14;21.73;;;17.52;;
50559;SDS011;36510;52.610;13.468;2022-11-13T10:44:19;21.98;;;17.85;;
50559;SDS011;36510;52.610;13.468;2022-11-13T10:49:19;24.45;;;18.83;;
50559;SDS011;36510;52.610;13.468;2022-11-13T10:54:18;20.60;;;17.48;;
50559;SDS011;36510;52.610;13.468;2022-11-13T10:59:15;22.40;;;18.92;;
50559;SDS011;36510;52.610;13.468;2022-11-13T11:04:26;21.45;;;18.55;;
50559;SDS011;36510;52.610;13.468;2022-11-13T11:09:26;21.03;;;18.83;;
50559;SDS011;36510;52.610;13.468;2022-11-13T11:14:24;21.45;;;18.92;;
50559;SDS011;36510;52.610;13.468;2022-11-13T11:19:18;21.70;;;17.63;;
50559;SDS011;36510;52.610;13.468;2022-11-13T11:24:15;21.48;;;18.38;;
50559;SDS011;36510;52.610;13.468;2022-11-13T11:39:34;22.73;;;18.40;;
50559;SDS011;36510;52.610;13.468;2022-11-13T11:49:46;21.77;;;18.25;;
50559;SDS011;36510;52.610;13.468;2022-11-13T11:54:40;23.08;;;18.33;;
50559;SDS011;36510;52.610;13.468;2022-11-13T11:59:39;22.67;;;18.35;;
50559;SDS011;36510;52.610;13.468;2022-11-13T12:10:21;25.05;;;19.80;;
50559;SDS011;36510;52.610;13.468;2022-11-13T12:15:22;19.98;;;16.60;;
50559;SDS011;36510;52.610;13.468;2022-11-13T12:20:34;20.48;;;18.20;;
50559;SDS011;36510;52.610;13.468;2022-11-13T12:25:34;20.05;;;17.17;;
50559;SDS011;36510;52.610;13.468;2022-11-13T12:31:19;22.85;;;17.48;;
50559;SDS011;36510;52.610;13.468;2022-11-13T12:35:49;22.95;;;16.63;;
50559;SDS011;36510;52.610;13.468;2022-11-13T12:45:45;18.38;;;16.35;;
50559;SDS011;36510;52.610;13.468;2022-11-13T12:50:41;19.30;;;16.08;;
50559;SDS011;36510;52.610;13.468;2022-11-13T12:55:32;18.98;;;15.82;;
50559;SDS011;36510;52.610;13.468;2022-11-13T13:00:25;19.08;;;16.30;;
50559;SDS011;36510;52.610;13.468;2022-11-13T13:05:34;17.20;;;14.98;;
50559;SDS011;36510;52.610;13.468;2022-11-13T13:10:49;21.27;;;15.30;;
50559;SDS011;36510;52.610;13.468;2022-11-13T13:16:01;18.95;;;15.63;;
50559;SDS011;36510;52.610;13.468;2022-11-13T13:25:46;16.90;;;15.05;;
50559;SDS011;36510;52.610;13.468;2022-11-13T13:45:56;20.13;;;16.67;;
50559;SDS011;36510;52.610;13.468;2022-11-13T13:51:04;19.83;;;17.08;;
50559;SDS011;36510;52.610;13.468;2022-11-13T13:56:20;20.52;;;17.20;;
50559;SDS011;36510;52.610;13.468;2022-11-13T14:01:13;20.67;;;17.10;;
50559;SDS011;36510;52.610;13.468;2022-11-13T14:06:18;22.50;;;17.58;;
50559;SDS011;36510;52.610;13.468;2022-11-13T14:11:17;23.15;;;17.90;;
50559;SDS011;36510;52.610;13.468;2022-11-13T14:16:15;20.38;;;17.00;;
50559;SDS011;36510;52.610;13.468;2022-11-13T14:21:39;22.05;;;16.98;;
50559;SDS011;36510;52.610;13.468;2022-11-13T14:26:23;21.48;;;18.38;;
50559;SDS011;36510;52.610;13.468;2022-11-13T14:31:13;21.17;;;18.45;;
50559;SDS011;36510;52.610;13.468;2022-11-13T14:36:05;19.40;;;17.33;;
50559;SDS011;36510;52.610;13.468;2022-11-13T14:40:56;20.30;;;17.42;;
50559;SDS011;36510;52.610;13.468;2022-11-13T14:45:55;18.52;;;16.60;;
50559;SDS011;36510;52.610;13.468;2022-11-13T14:50:48;20.83;;;18.05;;
50559;SDS011;36510;52.610;13.468;2022-11-13T14:55:51;22.15;;;17.83;;
50559;SDS011;36510;52.610;13.468;2022-11-13T15:00:44;21.58;;;18.38;;
50559;SDS011;36510;52.610;13.468;2022-11-13T15:05:34;20.60;;;17.52;;
50559;SDS011;36510;52.610;13.468;2022-11-13T15:10:25;26.50;;;19.58;;
50559;SDS011;36510;52.610;13.468;2022-11-13T15:15:22;21.40;;;17.55;;
50559;SDS011;36510;52.610;13.468;2022-11-13T15:20:26;22.20;;;17.98;;
50559;SDS011;36510;52.610;13.468;2022-11-13T15:25:21;21.23;;;17.80;;
50559;SDS011;36510;52.610;13.468;2022-11-13T15:30:12;21.73;;;18.10;;
50559;SDS011;36510;52.610;13.468;2022-11-13T15:35:04;22.27;;;18.60;;
50559;SDS011;36510;52.610;13.468;2022-11-13T15:39:56;21.50;;;18.70;;
50559;SDS011;36510;52.610;13.468;2022-11-13T15:44:46;24.10;;;19.92;;
50559;SDS011;36510;52.610;13.468;2022-11-13T15:49:37;24.35;;;19.83;;
50559;SDS011;36510;52.610;13.468;2022-11-13T15:54:28;22.20;;;19.70;;
50559;SDS011;36510;52.610;13.468;2022-11-13T15:59:21;25.10;;;20.83;;
50559;SDS011;36510;52.610;13.468;2022-11-13T16:04:12;28.40;;;22.00;;
50559;SDS011;36510;52.610;13.468;2022-11-13T16:09:05;25.02;;;21.83;;
50559;SDS011;36510;52.610;13.468;2022-11-13T16:14:01;26.85;;;21.85;;
50559;SDS011;36510;52.610;13.468;2022-11-13T16:18:51;32.35;;;24.08;;
50559;SDS011;36510;52.610;13.468;2022-11-13T16:23:42;30.13;;;24.55;;
50559;SDS011;36510;52.610;13.468;2022-11-13T16:28:33;34.45;;;25.70;;
50559;SDS011;36510;52.610;13.468;2022-11-13T16:33:23;29.63;;;26.10;;
50559;SDS011;36510;52.610;13.468;2022-11-13T16:38:14;32.45;;;27.10;;
50559;SDS011;36510;52.610;13.468;2022-11-13T16:43:04;35.08;;;28.20;;
50559;SDS011;36510;52.610;13.468;2022-11-13T16:47:55;35.28;;;28.35;;
50559;SDS011;36510;52.610;13.468;2022-11-13T16:52:46;33.92;;;27.83;;
50559;SDS011;36510;52.610;13.468;2022-11-13T16:57:37;33.42;;;27.13;;
50559;SDS011;36510;52.610;13.468;2022-11-13T17:02:28;34.58;;;28.15;;
50559;SDS011;36510;52.610;13.468;2022-11-13T17:07:18;33.22;;;25.98;;
50559;SDS011;36510;52.610;13.468;2022-11-13T17:12:09;37.25;;;29.20;;
50559;SDS011;36510;52.610;13.468;2022-11-13T17:17:00;34.63;;;28.17;;
50559;SDS011;36510;52.610;13.468;2022-11-13T17:21:52;39.78;;;30.90;;
50559;SDS011;36510;52.610;13.468;2022-11-13T17:26:43;38.47;;;30.23;;
50559;SDS011;36510;52.610;13.468;2022-11-13T17:31:33;34.67;;;26.65;;
50559;SDS011;36510;52.610;13.468;2022-11-13T17:36:24;32.45;;;26.48;;
50559;SDS011;36510;52.610;13.468;2022-11-13T17:41:15;32.05;;;26.02;;
50559;SDS011;36510;52.610;13.468;2022-11-13T17:46:08;33.58;;;25.75;;
50559;SDS011;36510;52.610;13.468;2022-11-13T17:51:01;33.45;;;26.75;;
50559;SDS011;36510;52.610;13.468;2022-11-13T17:55:54;33.15;;;25.58;;
50559;SDS011;36510;52.610;13.468;2022-11-13T18:00:46;34.13;;;25.90;;
50559;SDS011;36510;52.610;13.468;2022-11-13T18:05:38;35.88;;;26.30;;
50559;SDS011;36510;52.610;13.468;2022-11-13T18:10:28;34.22;;;26.17;;
50559;SDS011;36510;52.610;13.468;2022-11-13T18:15:20;32.28;;;25.83;;
50559;SDS011;36510;52.610;13.468;2022-11-13T18:20:10;29.58;;;24.38;;
50559;SDS011;36510;52.610;13.468;2022-11-13T18:25:01;32.50;;;24.48;;
50559;SDS011;36510;52.610;13.468;2022-11-13T18:29:52;33.83;;;25.38;;
50559;SDS011;36510;52.610;13.468;2022-11-13T18:34:42;31.25;;;25.80;;
50559;SDS011;36510;52.610;13.468;2022-11-13T18:39:33;34.92;;;25.88;;
50559;SDS011;36510;52.610;13.468;2022-11-13T18:44:23;31.63;;;26.65;;
50559;SDS011;36510;52.610;13.468;2022-11-13T18:49:14;36.80;;;26.50;;
50559;SDS011;36510;52.610;13.468;2022-11-13T18:54:05;33.58;;;26.48;;
50559;SDS011;36510;52.610;13.468;2022-11-13T18:58:58;31.77;;;25.75;;
50559;SDS011;36510;52.610;13.468;2022-11-13T19:03:49;35.60;;;27.23;;
50559;SDS011;36510;52.610;13.468;2022-11-13T19:08:41;35.17;;;27.35;;
50559;SDS011;36510;52.610;13.468;2022-11-13T19:13:32;34.63;;;27.15;;
50559;SDS011;36510;52.610;13.468;2022-11-13T19:18:23;36.72;;;28.05;;
50559;SDS011;36510;52.610;13.468;2022-11-13T19:23:14;35.15;;;26.10;;
50559;SDS011;36510;52.610;13.468;2022-11-13T19:28:04;35.47;;;28.15;;
50559;SDS011;36510;52.610;13.468;2022-11-13T19:32:55;34.38;;;26.35;;
50559;SDS011;36510;52.610;13.468;2022-11-13T19:37:45;33.85;;;27.20;;
50559;SDS011;36510;52.610;13.468;2022-11-13T19:42:35;33.88;;;27.48;;
50559;SDS011;36510;52.610;13.468;2022-11-13T19:47:26;34.25;;;27.00;;
50559;SDS011;36510;52.610;13.468;2022-11-13T19:52:16;32.50;;;27.13;;
50559;SDS011;36510;52.610;13.468;2022-11-13T19:57:07;35.20;;;27.20;;
50559;SDS011;36510;52.610;13.468;2022-11-13T20:01:57;36.28;;;28.08;;
50559;SDS011;36510;52.610;13.468;2022-11-13T20:06:48;36.97;;;28.42;;
50559;SDS011;36510;52.610;13.468;2022-11-13T20:11:39;37.58;;;30.00;;
50559;SDS011;36510;52.610;13.468;2022-11-13T20:16:30;39.25;;;30.30;;
50559;SDS011;36510;52.610;13.468;2022-11-13T20:21:24;39.28;;;29.10;;
50559;SDS011;36510;52.610;13.468;2022-11-13T20:26:15;39.22;;;29.25;;
50559;SDS011;36510;52.610;13.468;2022-11-13T20:31:10;37.30;;;29.77;;
50559;SDS011;36510;52.610;13.468;2022-11-13T20:36:05;34.87;;;27.90;;
50559;SDS011;36510;52.610;13.468;2022-11-13T20:40:56;39.35;;;29.35;;
50559;SDS011;36510;52.610;13.468;2022-11-13T20:45:46;39.22;;;31.33;;
50559;SDS011;36510;52.610;13.468;2022-11-13T20:50:37;35.90;;;29.15;;
50559;SDS011;36510;52.610;13.468;2022-11-13T20:55:28;35.13;;;30.65;;
50559;SDS011;36510;52.610;13.468;2022-11-13T21:00:19;34.92;;;28.95;;
50559;SDS011;36510;52.610;13.468;2022-11-13T21:05:09;37.45;;;30.08;;
50559;SDS011;36510;52.610;13.468;2022-11-13T21:10:00;39.70;;;31.15;;
50559;SDS011;36510;52.610;13.468;2022-11-13T21:14:50;35.65;;;27.65;;
50559;SDS011;36510;52.610;13.468;2022-11-13T21:19:41;36.22;;;28.27;;
50559;SDS011;36510;52.610;13.468;2022-11-13T21:24:32;35.92;;;28.25;;
50559;SDS011;36510;52.610;13.468;2022-11-13T21:29:25;36.80;;;28.70;;
50559;SDS011;36510;52.610;13.468;2022-11-13T21:34:16;36.75;;;28.80;;
50559;SDS011;36510;52.610;13.468;2022-11-13T21:39:06;37.60;;;28.52;;
50559;SDS011;36510;52.610;13.468;2022-11-13T21:43:57;36.30;;;27.17;;
50559;SDS011;36510;52.610;13.468;2022-11-13T21:48:54;40.40;;;30.10;;
50559;SDS011;36510;52.610;13.468;2022-11-13T21:53:48;42.30;;;30.13;;
50559;SDS011;36510;52.610;13.468;2022-11-13T21:58:39;43.78;;;31.60;;
50559;SDS011;36510;52.610;13.468;2022-11-13T22:03:30;45.13;;;31.25;;
50559;SDS011;36510;52.610;13.468;2022-11-13T22:08:20;46.15;;;32.67;;
50559;SDS011;36510;52.610;13.468;2022-11-13T22:13:11;47.97;;;33.10;;
50559;SDS011;36510;52.610;13.468;2022-11-13T22:18:01;49.03;;;34.63;;
50559;SDS011;36510;52.610;13.468;2022-11-13T22:22:52;56.08;;;36.40;;
50559;SDS011;36510;52.610;13.468;2022-11-13T22:27:42;54.42;;;35.38;;
50559;SDS011;36510;52.610;13.468;2022-11-13T22:32:33;52.65;;;35.67;;
50559;SDS011;36510;52.610;13.468;2022-11-13T22:37:23;56.42;;;37.90;;
50559;SDS011;36510;52.610;13.468;2022-11-13T22:42:14;54.78;;;36.78;;
50559;SDS011;36510;52.610;13.468;2022-11-13T22:47:04;56.40;;;37.83;;
50559;SDS011;36510;52.610;13.468;2022-11-13T22:51:55;55.22;;;37.60;;
50559;SDS011;36510;52.610;13.468;2022-11-13T22:56:45;60.05;;;40.33;;
50559;SDS011;36510;52.610;13.468;2022-11-13T23:01:36;55.45;;;39.85;;
50559;SDS011;36510;52.610;13.468;2022-11-13T23:06:28;56.83;;;39.05;;
50559;SDS011;36510;52.610;13.468;2022-11-13T23:11:21;60.97;;;39.08;;
50559;SDS011;36510;52.610;13.468;2022-11-13T23:16:12;59.08;;;40.42;;
50559;SDS011;36510;52.610;13.468;2022-11-13T23:21:03;61.50;;;40.95;;
50559;SDS011;36510;52.610;13.468;2022-11-13T23:25:55;61.83;;;41.13;;
50559;SDS011;36510;52.610;13.468;2022-11-13T23:30:45;60.42;;;40.75;;
50559;SDS011;36510;52.610;13.468;2022-11-13T23:35:36;60.83;;;40.25;;
50559;SDS011;36510;52.610;13.468;2022-11-13T23:40:26;61.50;;;43.42;;
50559;SDS011;36510;52.610;13.468;2022-11-13T23:45:16;61.65;;;41.17;;
50559;SDS011;36510;52.610;13.468;2022-11-13T23:50:07;64.13;;;42.20;;
50559;SDS011;36510;52.610;13.468;2022-11-13T23:54:58;59.97;;;41.85;;
50559;SDS011;36510;52.610;13.468;2022-11-13T23:59:49;63.08;;;41.92;;
